Rosaire A. Desgagnes — VOMR — position and weather

sailwx.info

Track history (hours):
 
Tides and Currents Weather Stations Pressure Air Temp Water Temp Dewpoint Dewpoint Depression Visibility Wind Speed Wind Dir Waves Ship Positions

Rosaire A. Desgagnes

Last reported at 2018-Jun-23 13:12 UTC. Time now 2018-Jul-20 14:27 UTC.
Position N 46°50' W 071°09'.
Warning: this ship's position is 27 days out of date.

Length 138 m; draft 7.8 m.

Type: Cargo ship. MMSI: 316011358.

Date/timePositionNaut miles runAvg speedWind from/ knotsBaromVisibWave heightAir tempDewpointWater temp
2018-Jun-23 13:12N 46°50' W 071°09'8813.0
2018-Jun-23 06:24N 46°06' W 072°59'513.7
2018-Jun-23 06:00N 46°03' W 073°06'612.3
2018-Jun-23 05:30N 45°59' W 073°11'713.9
2018-Jun-23 05:00N 45°52' W 073°16'714.0
2018-Jun-23 04:30N 45°47' W 073°22'713.5
2018-Jun-23 04:00N 45°41' W 073°27'712.2
2018-Jun-23 03:28N 45°35' W 073°30'5 8.3
2018-Jun-23 02:54N 45°30' W 073°31'1 1.3
2018-Jun-23 02:30N 45°30' W 073°31'1 1.1
2018-Jun-23 02:00N 45°29' W 073°31'1 2.1
2018-Jun-23 01:30N 45°28' W 073°30'2 4.0
2018-Jun-23 01:00N 45°26' W 073°30'2 4.6
2018-Jun-23 00:30N 45°24' W 073°32'1 2.3
2018-Jun-23 00:00N 45°24' W 073°34'1 1.5
2018-Jun-22 23:30N 45°24' W 073°35'1 1.8
2018-Jun-22 23:00N 45°24' W 073°36'1 2.7
2018-Jun-22 22:30N 45°24' W 073°38'2 4.5
2018-Jun-22 22:00N 45°25' W 073°41'3 5.1
2018-Jun-22 21:30N 45°24' W 073°45'1 2.2
2018-Jun-22 21:00N 45°24' W 073°46'3 6.0
2018-Jun-22 20:30N 45°25' W 073°42'3 5.1
2018-Jun-22 20:00N 45°24' W 073°39'2 3.6
2018-Jun-22 19:30N 45°24' W 073°36'1 1.1
2018-Jun-22 19:00N 45°24' W 073°35'0 0.0
2018-Jun-22 18:30N 45°24' W 073°35'0 0.0
2018-Jun-22 18:00N 45°24' W 073°35'0 0.0
2018-Jun-22 17:30N 45°24' W 073°35'0 0.0
2018-Jun-22 17:00N 45°24' W 073°35'0 0.0
2018-Jun-22 16:30N 45°24' W 073°35'0 0.0
2018-Jun-22 16:00N 45°24' W 073°35'0 0.0
2018-Jun-22 15:30N 45°24' W 073°35'0 0.0
2018-Jun-22 15:00N 45°24' W 073°35'0 0.0
2018-Jun-22 14:30N 45°24' W 073°35'0 0.0
2018-Jun-22 14:00N 45°24' W 073°35'0 0.0
2018-Jun-22 13:30N 45°24' W 073°35'0 0.0
2018-Jun-22 13:00N 45°24' W 073°35'0 0.0
2018-Jun-22 12:30N 45°24' W 073°35'0 0.0
2018-Jun-22 12:00N 45°24' W 073°35'0 0.0
2018-Jun-22 11:30N 45°24' W 073°35'0 0.0
2018-Jun-22 11:00N 45°24' W 073°35'0 0.0
2018-Jun-22 10:30N 45°24' W 073°35'0 0.0
2018-Jun-22 10:00N 45°24' W 073°35'0 0.0
2018-Jun-22 09:30N 45°24' W 073°35'0 0.0
2018-Jun-22 09:00N 45°24' W 073°35'0 0.0
2018-Jun-22 08:30N 45°24' W 073°35'0 0.0
2018-Jun-22 08:01N 45°24' W 073°35'0 0.0
2018-Jun-22 07:30N 45°24' W 073°35'0 0.0
2018-Jun-22 07:00N 45°24' W 073°35'0 0.0
2018-Jun-22 06:29N 45°24' W 073°35'0 0.0
2018-Jun-22 06:00N 45°24' W 073°35'0 0.0
2018-Jun-22 05:30N 45°24' W 073°35'0 0.0
2018-Jun-22 05:00N 45°24' W 073°35'0 0.0
2018-Jun-22 04:30N 45°24' W 073°35'0 0.0
2018-Jun-22 04:00N 45°24' W 073°35'0 0.0
2018-Jun-22 03:30N 45°24' W 073°35'0 0.0
2018-Jun-22 03:00N 45°24' W 073°35'0 0.0
2018-Jun-22 02:30N 45°24' W 073°35'0 0.0
2018-Jun-22 02:00N 45°24' W 073°35'0 0.0
2018-Jun-22 01:30N 45°24' W 073°35'0 0.0
2018-Jun-22 01:00N 45°24' W 073°35'0 0.0
2018-Jun-22 00:30N 45°24' W 073°35'0 0.0
2018-Jun-22 00:00N 45°24' W 073°35'0 0.0
2018-Jun-21 23:30N 45°24' W 073°35'0 0.0
2018-Jun-21 23:00N 45°24' W 073°35'0 0.0
2018-Jun-21 22:30N 45°24' W 073°35'0 0.0
2018-Jun-21 22:00N 45°24' W 073°35'0 0.0
2018-Jun-21 21:30N 45°24' W 073°35'0 0.0
2018-Jun-21 21:00N 45°24' W 073°35'0 0.0
2018-Jun-21 20:30N 45°24' W 073°35'0 0.0
2018-Jun-21 20:00N 45°24' W 073°35'0 0.0
2018-Jun-21 19:30N 45°24' W 073°35'0 0.0
2018-Jun-21 19:00N 45°24' W 073°35'0 0.0
2018-Jun-21 18:31N 45°24' W 073°35'0 0.0
2018-Jun-21 18:00N 45°24' W 073°35'0 0.0
2018-Jun-21 17:30N 45°24' W 073°35'0 0.0
2018-Jun-21 17:00N 45°24' W 073°35'0 0.0
2018-Jun-21 16:30N 45°24' W 073°35'0 0.0
2018-Jun-21 16:00N 45°24' W 073°35'0 0.0
2018-Jun-21 15:30N 45°24' W 073°35'0 0.0
2018-Jun-21 15:00N 45°24' W 073°35'0 0.0
2018-Jun-21 14:30N 45°24' W 073°35'0 0.0
2018-Jun-21 14:01N 45°24' W 073°35'0 0.0
2018-Jun-21 13:30N 45°24' W 073°35'0 0.0
2018-Jun-21 13:00N 45°24' W 073°35'0 0.0
2018-Jun-21 12:30N 45°24' W 073°35'0 0.0
2018-Jun-21 12:00N 45°24' W 073°35'0 0.0
2018-Jun-21 11:30N 45°24' W 073°35'0 0.0
2018-Jun-21 11:00N 45°24' W 073°35'0 0.0
2018-Jun-21 10:30N 45°24' W 073°35'0 0.0
2018-Jun-21 10:00N 45°24' W 073°35'0 0.0
2018-Jun-21 09:30N 45°24' W 073°35'0 0.0
2018-Jun-21 09:00N 45°24' W 073°35'0 0.0
2018-Jun-21 08:30N 45°24' W 073°35'0 0.0
2018-Jun-21 08:00N 45°24' W 073°35'0 0.0
2018-Jun-21 07:30N 45°24' W 073°35'0 0.0
2018-Jun-21 07:00N 45°24' W 073°35'0 0.0
2018-Jun-21 06:30N 45°24' W 073°35'0 0.0
2018-Jun-21 06:00N 45°24' W 073°35'0 0.0
2018-Jun-21 05:30N 45°24' W 073°35'0 0.0
2018-Jun-21 05:00N 45°24' W 073°35'0 0.0
2018-Jun-21 04:30N 45°24' W 073°35'0 0.0
2018-Jun-21 04:00N 45°24' W 073°35'0 0.0
2018-Jun-21 03:30N 45°24' W 073°35'0 0.0
2018-Jun-21 03:01N 45°24' W 073°35'0 0.0
2018-Jun-21 02:30N 45°24' W 073°35'0 0.0
2018-Jun-21 02:00N 45°24' W 073°35'0 0.0
2018-Jun-21 01:30N 45°24' W 073°35'0 0.0
2018-Jun-21 01:00N 45°24' W 073°35'0 0.0
2018-Jun-21 00:30N 45°24' W 073°35'0 0.0
2018-Jun-21 00:00N 45°24' W 073°35'0 0.0
2018-Jun-20 23:30N 45°24' W 073°35'0 0.0
2018-Jun-20 23:00N 45°24' W 073°35'0 0.0
2018-Jun-20 22:30N 45°24' W 073°35'0 0.0
2018-Jun-20 22:00N 45°24' W 073°35'0 0.0
2018-Jun-20 21:30N 45°24' W 073°35'0 0.0
2018-Jun-20 21:00N 45°24' W 073°35'0 0.0
2018-Jun-20 20:30N 45°24' W 073°35'0 0.0
2018-Jun-20 20:00N 45°24' W 073°35'0 0.0
2018-Jun-20 17:37N 45°24' W 073°35'0 0.1
2018-Jun-20 17:30N 45°24' W 073°35'0 0.0
2018-Jun-20 17:00N 45°24' W 073°35'0 0.0
2018-Jun-20 16:30N 45°24' W 073°35'0 0.0
2018-Jun-20 16:00N 45°24' W 073°35'0 0.0
2018-Jun-20 15:30N 45°24' W 073°35'0 0.0
2018-Jun-20 15:00N 45°24' W 073°35'0 0.0
2018-Jun-20 14:30N 45°24' W 073°35'0 0.0
2018-Jun-20 14:00N 45°24' W 073°35'0 0.0
2018-Jun-20 13:30N 45°24' W 073°35'0 0.0
2018-Jun-20 13:00N 45°24' W 073°35'0 0.0
2018-Jun-20 12:31N 45°24' W 073°35'0 0.0
2018-Jun-20 12:01N 45°24' W 073°35'0 0.0
2018-Jun-20 11:30N 45°24' W 073°35'0 0.0
2018-Jun-20 11:01N 45°24' W 073°35'0 0.0
2018-Jun-20 10:30N 45°24' W 073°35'0 0.0
2018-Jun-20 10:01N 45°24' W 073°35'0 0.0
2018-Jun-20 09:30N 45°24' W 073°35'0 0.0
2018-Jun-20 09:00N 45°24' W 073°35'0 0.0
2018-Jun-20 08:30N 45°24' W 073°35'0 0.0
2018-Jun-20 08:00N 45°24' W 073°35'0 0.0
2018-Jun-20 07:31N 45°24' W 073°35'0 0.0
2018-Jun-20 07:01N 45°24' W 073°35'0 0.0
2018-Jun-20 06:31N 45°24' W 073°35'0 0.0
2018-Jun-20 06:00N 45°24' W 073°35'0 0.0
2018-Jun-20 05:30N 45°24' W 073°35'0 0.0
2018-Jun-20 05:00N 45°24' W 073°35'0 0.0
2018-Jun-20 04:30N 45°24' W 073°35'0 0.0
2018-Jun-20 04:01N 45°24' W 073°35'0 0.0
2018-Jun-20 03:31N 45°24' W 073°35'0 0.0
2018-Jun-20 03:01N 45°24' W 073°35'0 0.0
2018-Jun-20 02:30N 45°24' W 073°35'0 0.0
2018-Jun-20 02:00N 45°24' W 073°35'0 0.0
2018-Jun-20 01:30N 45°24' W 073°35'0 0.0
2018-Jun-20 01:00N 45°24' W 073°35'0 0.0
2018-Jun-20 00:31N 45°24' W 073°35'0 0.0
2018-Jun-20 00:01N 45°24' W 073°35'0 0.0
2018-Jun-19 23:30N 45°24' W 073°35'0 0.0
2018-Jun-19 23:01N 45°24' W 073°35'0 0.0
2018-Jun-19 22:30N 45°24' W 073°35'0 0.0
2018-Jun-19 22:01N 45°24' W 073°35'0 0.0
2018-Jun-19 21:31N 45°24' W 073°35'0 0.0
2018-Jun-19 21:01N 45°24' W 073°35'0 0.0
2018-Jun-19 20:31N 45°24' W 073°35'0 0.0
2018-Jun-19 20:00N 45°24' W 073°35'0 0.0
2018-Jun-19 19:31N 45°24' W 073°35'0 0.0
2018-Jun-19 19:00N 45°24' W 073°35'0 0.0
2018-Jun-19 18:30N 45°24' W 073°35'0 0.0
2018-Jun-19 18:00N 45°24' W 073°35'0 0.0
2018-Jun-19 17:31N 45°24' W 073°35'0 0.0
2018-Jun-19 17:01N 45°24' W 073°35'0 0.0
2018-Jun-19 16:30N 45°24' W 073°35'0 0.0
2018-Jun-19 16:00N 45°24' W 073°35'0 0.0
2018-Jun-19 15:31N 45°24' W 073°35'0 0.0
2018-Jun-19 15:01N 45°24' W 073°35'0 0.0
2018-Jun-19 14:31N 45°24' W 073°35'0 0.0
2018-Jun-19 14:01N 45°24' W 073°35'0 0.0
2018-Jun-19 13:31N 45°24' W 073°35'0 0.0
2018-Jun-19 13:01N 45°24' W 073°35'0 0.0
2018-Jun-19 12:31N 45°24' W 073°35'0 0.0
2018-Jun-19 12:00N 45°24' W 073°35'0 0.0
2018-Jun-19 11:31N 45°24' W 073°35'0 0.0
2018-Jun-19 11:00N 45°24' W 073°35'0 0.0
2018-Jun-19 10:31N 45°24' W 073°35'0 0.0
2018-Jun-19 10:01N 45°24' W 073°35'0 0.0
2018-Jun-19 09:30N 45°24' W 073°35'0 0.0
2018-Jun-19 09:00N 45°24' W 073°35'0 0.0
2018-Jun-19 08:30N 45°24' W 073°35'0 0.0
2018-Jun-19 08:00N 45°24' W 073°35'0 0.0
2018-Jun-19 07:31N 45°24' W 073°35'0 0.0
2018-Jun-19 07:00N 45°24' W 073°35'0 0.0
2018-Jun-19 06:30N 45°24' W 073°35'0 0.0
2018-Jun-19 06:01N 45°24' W 073°35'0 0.0
2018-Jun-19 05:30N 45°24' W 073°35'0 0.0
2018-Jun-19 05:00N 45°24' W 073°35'0 0.0
2018-Jun-19 04:30N 45°24' W 073°35'0 0.0
2018-Jun-19 04:00N 45°24' W 073°35'0 0.0
2018-Jun-19 03:30N 45°24' W 073°35'0 0.0
2018-Jun-19 03:01N 45°24' W 073°35'0 0.0
2018-Jun-19 02:30N 45°24' W 073°35'0 0.0
2018-Jun-19 02:00N 45°24' W 073°35'0 0.0
2018-Jun-19 01:31N 45°24' W 073°35'0 0.0
2018-Jun-19 01:01N 45°24' W 073°35'0 0.0
2018-Jun-19 00:30N 45°24' W 073°35'0 0.0
2018-Jun-19 00:00N 45°24' W 073°35'0 0.0
2018-Jun-18 23:31N 45°24' W 073°35'0 0.0
2018-Jun-18 23:01N 45°24' W 073°35'0 0.0
2018-Jun-18 22:31N 45°24' W 073°35'0 0.0
2018-Jun-18 22:00N 45°24' W 073°35'0 0.0
2018-Jun-18 21:30N 45°24' W 073°35'0 0.0
2018-Jun-18 21:01N 45°24' W 073°35'0 0.0
2018-Jun-18 20:31N 45°24' W 073°35'0 0.0
2018-Jun-18 20:01N 45°24' W 073°35'0 0.0
2018-Jun-18 19:30N 45°24' W 073°35'0 0.0
2018-Jun-18 19:01N 45°24' W 073°35'0 0.0
2018-Jun-18 18:31N 45°24' W 073°35'0 0.0
2018-Jun-18 18:01N 45°24' W 073°35'0 0.0
2018-Jun-18 17:31N 45°24' W 073°35'0 0.0
2018-Jun-18 17:00N 45°24' W 073°35'0 0.0
2018-Jun-18 16:30N 45°24' W 073°35'0 0.0
2018-Jun-18 16:01N 45°24' W 073°35'0 0.0
2018-Jun-18 15:30N 45°24' W 073°35'0 0.0
2018-Jun-18 15:01N 45°24' W 073°35'0 0.0
2018-Jun-18 14:31N 45°24' W 073°35'0 0.0
2018-Jun-18 14:00N 45°24' W 073°35'0 0.0
2018-Jun-18 13:31N 45°24' W 073°35'0 0.0
2018-Jun-18 13:00N 45°24' W 073°35'0 0.0
2018-Jun-18 12:30N 45°24' W 073°35'0 0.0
2018-Jun-18 12:01N 45°24' W 073°35'0 0.0
2018-Jun-18 11:30N 45°24' W 073°35'0 0.0
2018-Jun-18 11:00N 45°24' W 073°35'0 0.0
2018-Jun-18 10:31N 45°24' W 073°35'0 0.0
2018-Jun-18 10:01N 45°24' W 073°35'0 0.0
2018-Jun-18 09:31N 45°24' W 073°35'0 0.0
2018-Jun-18 09:01N 45°24' W 073°35'0 0.0
2018-Jun-18 08:31N 45°24' W 073°35'0 0.0
2018-Jun-18 08:00N 45°24' W 073°35'0 0.0
2018-Jun-18 07:31N 45°24' W 073°35'0 0.0
2018-Jun-18 07:01N 45°24' W 073°35'0 0.0
2018-Jun-18 06:30N 45°24' W 073°35'0 0.0
2018-Jun-18 06:01N 45°24' W 073°35'0 0.0
2018-Jun-18 05:31N 45°24' W 073°35'0 0.0
2018-Jun-18 05:00N 45°24' W 073°35'0 0.0
2018-Jun-18 04:31N 45°24' W 073°35'0 0.0
2018-Jun-18 04:00N 45°24' W 073°35'0 0.0
2018-Jun-18 03:30N 45°24' W 073°35'0 0.0
2018-Jun-18 03:01N 45°24' W 073°35'0 0.0
2018-Jun-18 02:31N 45°24' W 073°35'0 0.0
2018-Jun-18 02:01N 45°24' W 073°35'0 0.0
2018-Jun-18 01:30N 45°24' W 073°35'0 0.0
2018-Jun-18 01:00N 45°24' W 073°35'0 0.0
2018-Jun-18 00:31N 45°24' W 073°35'0 0.0
2018-Jun-18 00:01N 45°24' W 073°35'0 0.0
2018-Jun-17 23:30N 45°24' W 073°35'0 0.0
2018-Jun-17 23:01N 45°24' W 073°35'0 0.0
2018-Jun-17 22:30N 45°24' W 073°35'0 0.0
2018-Jun-17 22:01N 45°24' W 073°35'0 0.0
2018-Jun-17 21:31N 45°24' W 073°35'0 0.0
2018-Jun-17 21:00N 45°24' W 073°35'0 0.0
2018-Jun-17 20:31N 45°24' W 073°35'0 0.0
2018-Jun-17 20:00N 45°24' W 073°35'0 0.0
2018-Jun-17 19:30N 45°24' W 073°35'0 0.0
2018-Jun-17 19:00N 45°24' W 073°35'0 0.0
2018-Jun-17 18:30N 45°24' W 073°35'0 0.0
2018-Jun-17 18:00N 45°24' W 073°35'0 0.0
2018-Jun-17 17:30N 45°24' W 073°35'0 0.0
2018-Jun-17 17:00N 45°24' W 073°35'0 0.0
2018-Jun-17 16:30N 45°24' W 073°35'0 0.0
2018-Jun-17 16:00N 45°24' W 073°35'0 0.0
2018-Jun-17 15:30N 45°24' W 073°35'0 0.0
2018-Jun-17 15:00N 45°24' W 073°35'0 0.0
2018-Jun-17 14:30N 45°24' W 073°35'0 0.0
2018-Jun-17 14:00N 45°24' W 073°35'0 0.0
2018-Jun-17 13:30N 45°24' W 073°35'0 0.0
2018-Jun-17 13:00N 45°24' W 073°35'0 0.0
2018-Jun-17 12:29N 45°24' W 073°35'0 0.0
2018-Jun-17 11:59N 45°24' W 073°35'0 0.0
2018-Jun-17 11:29N 45°24' W 073°35'0 0.0
2018-Jun-17 10:59N 45°24' W 073°35'0 0.0
2018-Jun-17 10:29N 45°24' W 073°35'0 0.0
2018-Jun-17 09:59N 45°24' W 073°35'0 0.0
2018-Jun-17 09:29N 45°24' W 073°35'0 0.0
2018-Jun-17 08:47N 45°24' W 073°35'0 0.0
2018-Jun-17 08:29N 45°24' W 073°35'0 0.0
2018-Jun-17 07:59N 45°24' W 073°35'0 0.0
2018-Jun-17 07:29N 45°24' W 073°35'0 0.0
2018-Jun-17 06:59N 45°24' W 073°35'0 0.0
2018-Jun-17 06:29N 45°24' W 073°35'0 0.0
2018-Jun-17 05:59N 45°24' W 073°35'0 0.0
2018-Jun-17 05:29N 45°24' W 073°35'0 0.0
2018-Jun-17 04:59N 45°24' W 073°35'0 0.0
2018-Jun-17 04:29N 45°24' W 073°35'0 0.0
2018-Jun-17 03:59N 45°24' W 073°35'0 0.0
2018-Jun-17 03:29N 45°24' W 073°35'0 0.0
2018-Jun-17 02:59N 45°24' W 073°35'0 0.0
2018-Jun-17 02:29N 45°24' W 073°35'0 0.0
2018-Jun-17 01:59N 45°24' W 073°35'0 0.0
2018-Jun-17 01:29N 45°24' W 073°35'0 0.0
2018-Jun-17 00:59N 45°24' W 073°35'0 0.0
2018-Jun-17 00:29N 45°24' W 073°35'0 0.0
2018-Jun-16 23:59N 45°24' W 073°35'0 0.0
2018-Jun-16 23:29N 45°24' W 073°35'0 0.0
2018-Jun-16 22:59N 45°24' W 073°35'0 0.0
2018-Jun-16 22:29N 45°24' W 073°35'0 0.0
2018-Jun-16 21:59N 45°24' W 073°35'0 0.0
2018-Jun-16 21:29N 45°24' W 073°35'0 0.0
2018-Jun-16 20:59N 45°24' W 073°35'0 0.0
2018-Jun-16 20:29N 45°24' W 073°35'0 0.0
2018-Jun-16 19:59N 45°24' W 073°35'0 0.0
2018-Jun-16 19:29N 45°24' W 073°35'0 0.0
2018-Jun-16 18:59N 45°24' W 073°35'0 0.0
2018-Jun-16 18:29N 45°24' W 073°35'0 0.0
2018-Jun-16 17:59N 45°24' W 073°35'0 0.0
2018-Jun-16 17:29N 45°24' W 073°35'0 0.0
2018-Jun-16 16:53N 45°24' W 073°35'0 0.0
2018-Jun-16 16:29N 45°24' W 073°35'0 0.0
2018-Jun-16 15:59N 45°24' W 073°35'0 0.0
2018-Jun-16 15:29N 45°24' W 073°35'0 0.0
2018-Jun-16 14:59N 45°24' W 073°35'0 0.0
2018-Jun-16 14:29N 45°24' W 073°35'0 0.0
2018-Jun-16 13:59N 45°24' W 073°35'0 0.0
2018-Jun-16 13:29N 45°24' W 073°35'0 0.0
2018-Jun-16 12:59N 45°24' W 073°35'0 0.0
2018-Jun-16 12:29N 45°24' W 073°35'0 0.0
2018-Jun-16 11:56N 45°24' W 073°35'0 0.0
2018-Jun-16 11:29N 45°24' W 073°35'0 0.0
2018-Jun-16 10:59N 45°24' W 073°35'0 0.0
2018-Jun-16 10:29N 45°24' W 073°35'0 0.0
2018-Jun-16 09:59N 45°24' W 073°35'0 0.0
2018-Jun-16 09:29N 45°24' W 073°35'0 0.0
2018-Jun-16 08:59N 45°24' W 073°35'0 0.0
2018-Jun-16 08:29N 45°24' W 073°35'0 0.0
2018-Jun-16 07:59N 45°24' W 073°35'0 0.0
2018-Jun-16 07:29N 45°24' W 073°35'0 0.0
2018-Jun-16 06:59N 45°24' W 073°35'0 0.0
2018-Jun-16 06:29N 45°24' W 073°35'0 0.0
2018-Jun-16 05:59N 45°24' W 073°35'0 0.0
2018-Jun-16 05:29N 45°24' W 073°35'0 0.0
2018-Jun-16 04:59N 45°24' W 073°35'0 0.0
2018-Jun-16 04:29N 45°24' W 073°35'0 0.0
2018-Jun-16 03:59N 45°24' W 073°35'0 0.0
2018-Jun-16 03:29N 45°24' W 073°35'0 0.0
2018-Jun-16 02:59N 45°24' W 073°35'0 0.0
2018-Jun-16 02:29N 45°24' W 073°35'0 0.0
2018-Jun-16 01:59N 45°24' W 073°35'0 0.0
2018-Jun-16 01:29N 45°24' W 073°35'0 0.0
2018-Jun-16 00:59N 45°24' W 073°35'0 0.0
2018-Jun-16 00:29N 45°24' W 073°35'0 0.0
2018-Jun-15 23:59N 45°24' W 073°35'0 0.0
2018-Jun-15 23:29N 45°24' W 073°35'0 0.0
2018-Jun-15 22:59N 45°24' W 073°35'0 0.0
2018-Jun-15 22:29N 45°24' W 073°35'0 0.0
2018-Jun-15 21:59N 45°24' W 073°35'0 0.0
2018-Jun-15 21:29N 45°24' W 073°35'0 0.0
2018-Jun-15 20:59N 45°24' W 073°35'0 0.0
2018-Jun-15 20:29N 45°24' W 073°35'0 0.0
2018-Jun-15 19:59N 45°24' W 073°35'0 0.0
2018-Jun-15 19:29N 45°24' W 073°35'0 0.0
2018-Jun-15 19:01N 45°24' W 073°35'1 1.7
2018-Jun-15 18:31N 45°24' W 073°34'0 1.0
2018-Jun-15 18:01N 45°24' W 073°33'1 2.5
2018-Jun-15 17:30N 45°25' W 073°31'3 5.4
2018-Jun-15 16:59N 45°27' W 073°30'2 5.2
2018-Jun-15 16:31N 45°30' W 073°31'0 0.6
2018-Jun-15 16:00N 45°30' W 073°31'0 0.4
2018-Jun-15 15:27N 45°30' W 073°31'  
Track history (hours):
 
Tides and Currents Weather Stations Pressure Air Temp Water Temp Dewpoint Dewpoint Depression Visibility Wind Speed Wind Dir Waves Ship Positions

Rosaire A. Desgagnes

Last reported at 2018-Jun-23 13:12 UTC. Time now 2018-Jul-20 14:27 UTC.
Position N 46°50' W 071°09'.
Warning: this ship's position is 27 days out of date.

Length 138 m; draft 7.8 m.

Type: Cargo ship. MMSI: 316011358.

Date/timePositionNaut miles runAvg speedWind from/ knotsBaromVisibWave heightAir tempDewpointWater temp
2018-Jun-23 13:12N 46°50' W 071°09'8813.0
2018-Jun-23 06:24N 46°06' W 072°59'513.7
2018-Jun-23 06:00N 46°03' W 073°06'612.3
2018-Jun-23 05:30N 45°59' W 073°11'713.9
2018-Jun-23 05:00N 45°52' W 073°16'714.0
2018-Jun-23 04:30N 45°47' W 073°22'713.5
2018-Jun-23 04:00N 45°41' W 073°27'712.2
2018-Jun-23 03:28N 45°35' W 073°30'5 8.3
2018-Jun-23 02:54N 45°30' W 073°31'1 1.3
2018-Jun-23 02:30N 45°30' W 073°31'1 1.1
2018-Jun-23 02:00N 45°29' W 073°31'1 2.1
2018-Jun-23 01:30N 45°28' W 073°30'2 4.0
2018-Jun-23 01:00N 45°26' W 073°30'2 4.6
2018-Jun-23 00:30N 45°24' W 073°32'1 2.3
2018-Jun-23 00:00N 45°24' W 073°34'1 1.5
2018-Jun-22 23:30N 45°24' W 073°35'1 1.8
2018-Jun-22 23:00N 45°24' W 073°36'1 2.7
2018-Jun-22 22:30N 45°24' W 073°38'2 4.5
2018-Jun-22 22:00N 45°25' W 073°41'3 5.1
2018-Jun-22 21:30N 45°24' W 073°45'1 2.2
2018-Jun-22 21:00N 45°24' W 073°46'3 6.0
2018-Jun-22 20:30N 45°25' W 073°42'3 5.1
2018-Jun-22 20:00N 45°24' W 073°39'2 3.6
2018-Jun-22 19:30N 45°24' W 073°36'1 1.1
2018-Jun-22 19:00N 45°24' W 073°35'0 0.0
2018-Jun-22 18:30N 45°24' W 073°35'0 0.0
2018-Jun-22 18:00N 45°24' W 073°35'0 0.0
2018-Jun-22 17:30N 45°24' W 073°35'0 0.0
2018-Jun-22 17:00N 45°24' W 073°35'0 0.0
2018-Jun-22 16:30N 45°24' W 073°35'0 0.0
2018-Jun-22 16:00N 45°24' W 073°35'0 0.0
2018-Jun-22 15:30N 45°24' W 073°35'0 0.0
2018-Jun-22 15:00N 45°24' W 073°35'0 0.0
2018-Jun-22 14:30N 45°24' W 073°35'0 0.0
2018-Jun-22 14:00N 45°24' W 073°35'0 0.0
2018-Jun-22 13:30N 45°24' W 073°35'0 0.0
2018-Jun-22 13:00N 45°24' W 073°35'0 0.0
2018-Jun-22 12:30N 45°24' W 073°35'0 0.0
2018-Jun-22 12:00N 45°24' W 073°35'0 0.0
2018-Jun-22 11:30N 45°24' W 073°35'0 0.0
2018-Jun-22 11:00N 45°24' W 073°35'0 0.0
2018-Jun-22 10:30N 45°24' W 073°35'0 0.0
2018-Jun-22 10:00N 45°24' W 073°35'0 0.0
2018-Jun-22 09:30N 45°24' W 073°35'0 0.0
2018-Jun-22 09:00N 45°24' W 073°35'0 0.0
2018-Jun-22 08:30N 45°24' W 073°35'0 0.0
2018-Jun-22 08:01N 45°24' W 073°35'0 0.0
2018-Jun-22 07:30N 45°24' W 073°35'0 0.0
2018-Jun-22 07:00N 45°24' W 073°35'0 0.0
2018-Jun-22 06:29N 45°24' W 073°35'0 0.0
2018-Jun-22 06:00N 45°24' W 073°35'0 0.0
2018-Jun-22 05:30N 45°24' W 073°35'0 0.0
2018-Jun-22 05:00N 45°24' W 073°35'0 0.0
2018-Jun-22 04:30N 45°24' W 073°35'0 0.0
2018-Jun-22 04:00N 45°24' W 073°35'0 0.0
2018-Jun-22 03:30N 45°24' W 073°35'0 0.0
2018-Jun-22 03:00N 45°24' W 073°35'0 0.0
2018-Jun-22 02:30N 45°24' W 073°35'0 0.0
2018-Jun-22 02:00N 45°24' W 073°35'0 0.0
2018-Jun-22 01:30N 45°24' W 073°35'0 0.0
2018-Jun-22 01:00N 45°24' W 073°35'0 0.0
2018-Jun-22 00:30N 45°24' W 073°35'0 0.0
2018-Jun-22 00:00N 45°24' W 073°35'0 0.0
2018-Jun-21 23:30N 45°24' W 073°35'0 0.0
2018-Jun-21 23:00N 45°24' W 073°35'0 0.0
2018-Jun-21 22:30N 45°24' W 073°35'0 0.0
2018-Jun-21 22:00N 45°24' W 073°35'0 0.0
2018-Jun-21 21:30N 45°24' W 073°35'0 0.0
2018-Jun-21 21:00N 45°24' W 073°35'0 0.0
2018-Jun-21 20:30N 45°24' W 073°35'0 0.0
2018-Jun-21 20:00N 45°24' W 073°35'0 0.0
2018-Jun-21 19:30N 45°24' W 073°35'0 0.0
2018-Jun-21 19:00N 45°24' W 073°35'0 0.0
2018-Jun-21 18:31N 45°24' W 073°35'0 0.0
2018-Jun-21 18:00N 45°24' W 073°35'0 0.0
2018-Jun-21 17:30N 45°24' W 073°35'0 0.0
2018-Jun-21 17:00N 45°24' W 073°35'0 0.0
2018-Jun-21 16:30N 45°24' W 073°35'0 0.0
2018-Jun-21 16:00N 45°24' W 073°35'0 0.0
2018-Jun-21 15:30N 45°24' W 073°35'0 0.0
2018-Jun-21 15:00N 45°24' W 073°35'0 0.0
2018-Jun-21 14:30N 45°24' W 073°35'0 0.0
2018-Jun-21 14:01N 45°24' W 073°35'0 0.0
2018-Jun-21 13:30N 45°24' W 073°35'0 0.0
2018-Jun-21 13:00N 45°24' W 073°35'0 0.0
2018-Jun-21 12:30N 45°24' W 073°35'0 0.0
2018-Jun-21 12:00N 45°24' W 073°35'0 0.0
2018-Jun-21 11:30N 45°24' W 073°35'0 0.0
2018-Jun-21 11:00N 45°24' W 073°35'0 0.0
2018-Jun-21 10:30N 45°24' W 073°35'0 0.0
2018-Jun-21 10:00N 45°24' W 073°35'0 0.0
2018-Jun-21 09:30N 45°24' W 073°35'0 0.0
2018-Jun-21 09:00N 45°24' W 073°35'0 0.0
2018-Jun-21 08:30N 45°24' W 073°35'0 0.0
2018-Jun-21 08:00N 45°24' W 073°35'0 0.0
2018-Jun-21 07:30N 45°24' W 073°35'0 0.0
2018-Jun-21 07:00N 45°24' W 073°35'0 0.0
2018-Jun-21 06:30N 45°24' W 073°35'0 0.0
2018-Jun-21 06:00N 45°24' W 073°35'0 0.0
2018-Jun-21 05:30N 45°24' W 073°35'0 0.0
2018-Jun-21 05:00N 45°24' W 073°35'0 0.0
2018-Jun-21 04:30N 45°24' W 073°35'0 0.0
2018-Jun-21 04:00N 45°24' W 073°35'0 0.0
2018-Jun-21 03:30N 45°24' W 073°35'0 0.0
2018-Jun-21 03:01N 45°24' W 073°35'0 0.0
2018-Jun-21 02:30N 45°24' W 073°35'0 0.0
2018-Jun-21 02:00N 45°24' W 073°35'0 0.0
2018-Jun-21 01:30N 45°24' W 073°35'0 0.0
2018-Jun-21 01:00N 45°24' W 073°35'0 0.0
2018-Jun-21 00:30N 45°24' W 073°35'0 0.0
2018-Jun-21 00:00N 45°24' W 073°35'0 0.0
2018-Jun-20 23:30N 45°24' W 073°35'0 0.0
2018-Jun-20 23:00N 45°24' W 073°35'0 0.0
2018-Jun-20 22:30N 45°24' W 073°35'0 0.0
2018-Jun-20 22:00N 45°24' W 073°35'0 0.0
2018-Jun-20 21:30N 45°24' W 073°35'0 0.0
2018-Jun-20 21:00N 45°24' W 073°35'0 0.0
2018-Jun-20 20:30N 45°24' W 073°35'0 0.0
2018-Jun-20 20:00N 45°24' W 073°35'0 0.0
2018-Jun-20 17:37N 45°24' W 073°35'0 0.1
2018-Jun-20 17:30N 45°24' W 073°35'0 0.0
2018-Jun-20 17:00N 45°24' W 073°35'0 0.0
2018-Jun-20 16:30N 45°24' W 073°35'0 0.0
2018-Jun-20 16:00N 45°24' W 073°35'0 0.0
2018-Jun-20 15:30N 45°24' W 073°35'0 0.0
2018-Jun-20 15:00N 45°24' W 073°35'0 0.0
2018-Jun-20 14:30N 45°24' W 073°35'0 0.0
2018-Jun-20 14:00N 45°24' W 073°35'0 0.0
2018-Jun-20 13:30N 45°24' W 073°35'0 0.0
2018-Jun-20 13:00N 45°24' W 073°35'0 0.0
2018-Jun-20 12:31N 45°24' W 073°35'0 0.0
2018-Jun-20 12:01N 45°24' W 073°35'0 0.0
2018-Jun-20 11:30N 45°24' W 073°35'0 0.0
2018-Jun-20 11:01N 45°24' W 073°35'0 0.0
2018-Jun-20 10:30N 45°24' W 073°35'0 0.0
2018-Jun-20 10:01N 45°24' W 073°35'0 0.0
2018-Jun-20 09:30N 45°24' W 073°35'0 0.0
2018-Jun-20 09:00N 45°24' W 073°35'0 0.0
2018-Jun-20 08:30N 45°24' W 073°35'0 0.0
2018-Jun-20 08:00N 45°24' W 073°35'0 0.0
2018-Jun-20 07:31N 45°24' W 073°35'0 0.0
2018-Jun-20 07:01N 45°24' W 073°35'0 0.0
2018-Jun-20 06:31N 45°24' W 073°35'0 0.0
2018-Jun-20 06:00N 45°24' W 073°35'0 0.0
2018-Jun-20 05:30N 45°24' W 073°35'0 0.0
2018-Jun-20 05:00N 45°24' W 073°35'0 0.0
2018-Jun-20 04:30N 45°24' W 073°35'0 0.0
2018-Jun-20 04:01N 45°24' W 073°35'0 0.0
2018-Jun-20 03:31N 45°24' W 073°35'0 0.0
2018-Jun-20 03:01N 45°24' W 073°35'0 0.0
2018-Jun-20 02:30N 45°24' W 073°35'0 0.0
2018-Jun-20 02:00N 45°24' W 073°35'0 0.0
2018-Jun-20 01:30N 45°24' W 073°35'0 0.0
2018-Jun-20 01:00N 45°24' W 073°35'0 0.0
2018-Jun-20 00:31N 45°24' W 073°35'0 0.0
2018-Jun-20 00:01N 45°24' W 073°35'0 0.0
2018-Jun-19 23:30N 45°24' W 073°35'0 0.0
2018-Jun-19 23:01N 45°24' W 073°35'0 0.0
2018-Jun-19 22:30N 45°24' W 073°35'0 0.0
2018-Jun-19 22:01N 45°24' W 073°35'0 0.0
2018-Jun-19 21:31N 45°24' W 073°35'0 0.0
2018-Jun-19 21:01N 45°24' W 073°35'0 0.0
2018-Jun-19 20:31N 45°24' W 073°35'0 0.0
2018-Jun-19 20:00N 45°24' W 073°35'0 0.0
2018-Jun-19 19:31N 45°24' W 073°35'0 0.0
2018-Jun-19 19:00N 45°24' W 073°35'0 0.0
2018-Jun-19 18:30N 45°24' W 073°35'0 0.0
2018-Jun-19 18:00N 45°24' W 073°35'0 0.0
2018-Jun-19 17:31N 45°24' W 073°35'0 0.0
2018-Jun-19 17:01N 45°24' W 073°35'0 0.0
2018-Jun-19 16:30N 45°24' W 073°35'0 0.0
2018-Jun-19 16:00N 45°24' W 073°35'0 0.0
2018-Jun-19 15:31N 45°24' W 073°35'0 0.0
2018-Jun-19 15:01N 45°24' W 073°35'0 0.0
2018-Jun-19 14:31N 45°24' W 073°35'0 0.0
2018-Jun-19 14:01N 45°24' W 073°35'0 0.0
2018-Jun-19 13:31N 45°24' W 073°35'0 0.0
2018-Jun-19 13:01N 45°24' W 073°35'0 0.0
2018-Jun-19 12:31N 45°24' W 073°35'0 0.0
2018-Jun-19 12:00N 45°24' W 073°35'0 0.0
2018-Jun-19 11:31N 45°24' W 073°35'0 0.0
2018-Jun-19 11:00N 45°24' W 073°35'0 0.0
2018-Jun-19 10:31N 45°24' W 073°35'0 0.0
2018-Jun-19 10:01N 45°24' W 073°35'0 0.0
2018-Jun-19 09:30N 45°24' W 073°35'0 0.0
2018-Jun-19 09:00N 45°24' W 073°35'0 0.0
2018-Jun-19 08:30N 45°24' W 073°35'0 0.0
2018-Jun-19 08:00N 45°24' W 073°35'0 0.0
2018-Jun-19 07:31N 45°24' W 073°35'0 0.0
2018-Jun-19 07:00N 45°24' W 073°35'0 0.0
2018-Jun-19 06:30N 45°24' W 073°35'0 0.0
2018-Jun-19 06:01N 45°24' W 073°35'0 0.0
2018-Jun-19 05:30N 45°24' W 073°35'0 0.0
2018-Jun-19 05:00N 45°24' W 073°35'0 0.0
2018-Jun-19 04:30N 45°24' W 073°35'0 0.0
2018-Jun-19 04:00N 45°24' W 073°35'0 0.0
2018-Jun-19 03:30N 45°24' W 073°35'0 0.0
2018-Jun-19 03:01N 45°24' W 073°35'0 0.0
2018-Jun-19 02:30N 45°24' W 073°35'0 0.0
2018-Jun-19 02:00N 45°24' W 073°35'0 0.0
2018-Jun-19 01:31N 45°24' W 073°35'0 0.0
2018-Jun-19 01:01N 45°24' W 073°35'0 0.0
2018-Jun-19 00:30N 45°24' W 073°35'0 0.0
2018-Jun-19 00:00N 45°24' W 073°35'0 0.0
2018-Jun-18 23:31N 45°24' W 073°35'0 0.0
2018-Jun-18 23:01N 45°24' W 073°35'0 0.0
2018-Jun-18 22:31N 45°24' W 073°35'0 0.0
2018-Jun-18 22:00N 45°24' W 073°35'0 0.0
2018-Jun-18 21:30N 45°24' W 073°35'0 0.0
2018-Jun-18 21:01N 45°24' W 073°35'0 0.0
2018-Jun-18 20:31N 45°24' W 073°35'0 0.0
2018-Jun-18 20:01N 45°24' W 073°35'0 0.0
2018-Jun-18 19:30N 45°24' W 073°35'0 0.0
2018-Jun-18 19:01N 45°24' W 073°35'0 0.0
2018-Jun-18 18:31N 45°24' W 073°35'0 0.0
2018-Jun-18 18:01N 45°24' W 073°35'0 0.0
2018-Jun-18 17:31N 45°24' W 073°35'0 0.0
2018-Jun-18 17:00N 45°24' W 073°35'0 0.0
2018-Jun-18 16:30N 45°24' W 073°35'0 0.0
2018-Jun-18 16:01N 45°24' W 073°35'0 0.0
2018-Jun-18 15:30N 45°24' W 073°35'0 0.0
2018-Jun-18 15:01N 45°24' W 073°35'0 0.0
2018-Jun-18 14:31N 45°24' W 073°35'0 0.0
2018-Jun-18 14:00N 45°24' W 073°35'0 0.0
2018-Jun-18 13:31N 45°24' W 073°35'0 0.0
2018-Jun-18 13:00N 45°24' W 073°35'0 0.0
2018-Jun-18 12:30N 45°24' W 073°35'0 0.0
2018-Jun-18 12:01N 45°24' W 073°35'0 0.0
2018-Jun-18 11:30N 45°24' W 073°35'0 0.0
2018-Jun-18 11:00N 45°24' W 073°35'0 0.0
2018-Jun-18 10:31N 45°24' W 073°35'0 0.0
2018-Jun-18 10:01N 45°24' W 073°35'0 0.0
2018-Jun-18 09:31N 45°24' W 073°35'0 0.0
2018-Jun-18 09:01N 45°24' W 073°35'0 0.0
2018-Jun-18 08:31N 45°24' W 073°35'0 0.0
2018-Jun-18 08:00N 45°24' W 073°35'0 0.0
2018-Jun-18 07:31N 45°24' W 073°35'0 0.0
2018-Jun-18 07:01N 45°24' W 073°35'0 0.0
2018-Jun-18 06:30N 45°24' W 073°35'0 0.0
2018-Jun-18 06:01N 45°24' W 073°35'0 0.0
2018-Jun-18 05:31N 45°24' W 073°35'0 0.0
2018-Jun-18 05:00N 45°24' W 073°35'0 0.0
2018-Jun-18 04:31N 45°24' W 073°35'0 0.0
2018-Jun-18 04:00N 45°24' W 073°35'0 0.0
2018-Jun-18 03:30N 45°24' W 073°35'0 0.0
2018-Jun-18 03:01N 45°24' W 073°35'0 0.0
2018-Jun-18 02:31N 45°24' W 073°35'0 0.0
2018-Jun-18 02:01N 45°24' W 073°35'0 0.0
2018-Jun-18 01:30N 45°24' W 073°35'0 0.0
2018-Jun-18 01:00N 45°24' W 073°35'0 0.0
2018-Jun-18 00:31N 45°24' W 073°35'0 0.0
2018-Jun-18 00:01N 45°24' W 073°35'0 0.0
2018-Jun-17 23:30N 45°24' W 073°35'0 0.0
2018-Jun-17 23:01N 45°24' W 073°35'0 0.0
2018-Jun-17 22:30N 45°24' W 073°35'0 0.0
2018-Jun-17 22:01N 45°24' W 073°35'0 0.0
2018-Jun-17 21:31N 45°24' W 073°35'0 0.0
2018-Jun-17 21:00N 45°24' W 073°35'0 0.0
2018-Jun-17 20:31N 45°24' W 073°35'0 0.0
2018-Jun-17 20:00N 45°24' W 073°35'0 0.0
2018-Jun-17 19:30N 45°24' W 073°35'0 0.0
2018-Jun-17 19:00N 45°24' W 073°35'0 0.0
2018-Jun-17 18:30N 45°24' W 073°35'0 0.0
2018-Jun-17 18:00N 45°24' W 073°35'0 0.0
2018-Jun-17 17:30N 45°24' W 073°35'0 0.0
2018-Jun-17 17:00N 45°24' W 073°35'0 0.0
2018-Jun-17 16:30N 45°24' W 073°35'0 0.0
2018-Jun-17 16:00N 45°24' W 073°35'0 0.0
2018-Jun-17 15:30N 45°24' W 073°35'0 0.0
2018-Jun-17 15:00N 45°24' W 073°35'0 0.0
2018-Jun-17 14:30N 45°24' W 073°35'0 0.0
2018-Jun-17 14:00N 45°24' W 073°35'0 0.0
2018-Jun-17 13:30N 45°24' W 073°35'0 0.0
2018-Jun-17 13:00N 45°24' W 073°35'0 0.0
2018-Jun-17 12:29N 45°24' W 073°35'0 0.0
2018-Jun-17 11:59N 45°24' W 073°35'0 0.0
2018-Jun-17 11:29N 45°24' W 073°35'0 0.0
2018-Jun-17 10:59N 45°24' W 073°35'0 0.0
2018-Jun-17 10:29N 45°24' W 073°35'0 0.0
2018-Jun-17 09:59N 45°24' W 073°35'0 0.0
2018-Jun-17 09:29N 45°24' W 073°35'0 0.0
2018-Jun-17 08:47N 45°24' W 073°35'0 0.0
2018-Jun-17 08:29N 45°24' W 073°35'0 0.0
2018-Jun-17 07:59N 45°24' W 073°35'0 0.0
2018-Jun-17 07:29N 45°24' W 073°35'0 0.0
2018-Jun-17 06:59N 45°24' W 073°35'0 0.0
2018-Jun-17 06:29N 45°24' W 073°35'0 0.0
2018-Jun-17 05:59N 45°24' W 073°35'0 0.0
2018-Jun-17 05:29N 45°24' W 073°35'0 0.0
2018-Jun-17 04:59N 45°24' W 073°35'0 0.0
2018-Jun-17 04:29N 45°24' W 073°35'0 0.0
2018-Jun-17 03:59N 45°24' W 073°35'0 0.0
2018-Jun-17 03:29N 45°24' W 073°35'0 0.0
2018-Jun-17 02:59N 45°24' W 073°35'0 0.0
2018-Jun-17 02:29N 45°24' W 073°35'0 0.0
2018-Jun-17 01:59N 45°24' W 073°35'0 0.0
2018-Jun-17 01:29N 45°24' W 073°35'0 0.0
2018-Jun-17 00:59N 45°24' W 073°35'0 0.0
2018-Jun-17 00:29N 45°24' W 073°35'0 0.0
2018-Jun-16 23:59N 45°24' W 073°35'0 0.0
2018-Jun-16 23:29N 45°24' W 073°35'0 0.0
2018-Jun-16 22:59N 45°24' W 073°35'0 0.0
2018-Jun-16 22:29N 45°24' W 073°35'0 0.0
2018-Jun-16 21:59N 45°24' W 073°35'0 0.0
2018-Jun-16 21:29N 45°24' W 073°35'0 0.0
2018-Jun-16 20:59N 45°24' W 073°35'0 0.0
2018-Jun-16 20:29N 45°24' W 073°35'0 0.0
2018-Jun-16 19:59N 45°24' W 073°35'0 0.0
2018-Jun-16 19:29N 45°24' W 073°35'0 0.0
2018-Jun-16 18:59N 45°24' W 073°35'0 0.0
2018-Jun-16 18:29N 45°24' W 073°35'0 0.0
2018-Jun-16 17:59N 45°24' W 073°35'0 0.0
2018-Jun-16 17:29N 45°24' W 073°35'0 0.0
2018-Jun-16 16:53N 45°24' W 073°35'0 0.0
2018-Jun-16 16:29N 45°24' W 073°35'0 0.0
2018-Jun-16 15:59N 45°24' W 073°35'0 0.0
2018-Jun-16 15:29N 45°24' W 073°35'0 0.0
2018-Jun-16 14:59N 45°24' W 073°35'0 0.0
2018-Jun-16 14:29N 45°24' W 073°35'0 0.0
2018-Jun-16 13:59N 45°24' W 073°35'0 0.0
2018-Jun-16 13:29N 45°24' W 073°35'0 0.0
2018-Jun-16 12:59N 45°24' W 073°35'0 0.0
2018-Jun-16 12:29N 45°24' W 073°35'0 0.0
2018-Jun-16 11:56N 45°24' W 073°35'0 0.0
2018-Jun-16 11:29N 45°24' W 073°35'0 0.0
2018-Jun-16 10:59N 45°24' W 073°35'0 0.0
2018-Jun-16 10:29N 45°24' W 073°35'0 0.0
2018-Jun-16 09:59N 45°24' W 073°35'0 0.0
2018-Jun-16 09:29N 45°24' W 073°35'0 0.0
2018-Jun-16 08:59N 45°24' W 073°35'0 0.0
2018-Jun-16 08:29N 45°24' W 073°35'0 0.0
2018-Jun-16 07:59N 45°24' W 073°35'0 0.0
2018-Jun-16 07:29N 45°24' W 073°35'0 0.0
2018-Jun-16 06:59N 45°24' W 073°35'0 0.0
2018-Jun-16 06:29N 45°24' W 073°35'0 0.0
2018-Jun-16 05:59N 45°24' W 073°35'0 0.0
2018-Jun-16 05:29N 45°24' W 073°35'0 0.0
2018-Jun-16 04:59N 45°24' W 073°35'0 0.0
2018-Jun-16 04:29N 45°24' W 073°35'0 0.0
2018-Jun-16 03:59N 45°24' W 073°35'0 0.0
2018-Jun-16 03:29N 45°24' W 073°35'0 0.0
2018-Jun-16 02:59N 45°24' W 073°35'0 0.0
2018-Jun-16 02:29N 45°24' W 073°35'0 0.0
2018-Jun-16 01:59N 45°24' W 073°35'0 0.0
2018-Jun-16 01:29N 45°24' W 073°35'0 0.0
2018-Jun-16 00:59N 45°24' W 073°35'0 0.0
2018-Jun-16 00:29N 45°24' W 073°35'0 0.0
2018-Jun-15 23:59N 45°24' W 073°35'0 0.0
2018-Jun-15 23:29N 45°24' W 073°35'0 0.0
2018-Jun-15 22:59N 45°24' W 073°35'0 0.0
2018-Jun-15 22:29N 45°24' W 073°35'0 0.0
2018-Jun-15 21:59N 45°24' W 073°35'0 0.0
2018-Jun-15 21:29N 45°24' W 073°35'0 0.0
2018-Jun-15 20:59N 45°24' W 073°35'0 0.0
2018-Jun-15 20:29N 45°24' W 073°35'0 0.0
2018-Jun-15 19:59N 45°24' W 073°35'0 0.0
2018-Jun-15 19:29N 45°24' W 073°35'0 0.0
2018-Jun-15 19:01N 45°24' W 073°35'1 1.7
2018-Jun-15 18:31N 45°24' W 073°34'0 1.0
2018-Jun-15 18:01N 45°24' W 073°33'1 2.5
2018-Jun-15 17:30N 45°25' W 073°31'3 5.4
2018-Jun-15 16:59N 45°27' W 073°30'2 5.2
2018-Jun-15 16:31N 45°30' W 073°31'0 0.6
2018-Jun-15 16:00N 45°30' W 073°31'0 0.4
2018-Jun-15 15:27N 45°30' W 073°31'  

Dump ship's entire track history